Main page
METAR-TAF:

METAR-TAF

Airports :

Albacete Airport

Albacete, Spain

latitude: 38-57N, longitude: 001-51W, elevation: 702 m

Current weather observation

The report was made 21 minutes ago, at 04:00 UTC
Calm wind
Temperature 7°C
Humidity 100%
Pressure 1018 hPa
Visibility: 1500 m
Few clouds at a height of 3900 ft
mist

METAR: LEAB 170400Z 00000KT 1500 BR FEW039 07/07 Q1018 BECMG 0600 FG BKN006

Time: 06:21 (04:21 UTC)

Forecast

The report was made 2 hours and 21 minutes ago, at 02:00 UTC
Forecast valid from 17 at 03 UTC to 17 at 12 UTC
Wind 6 kt from the North
Visibility 10 km or more
no clouds below 1500 m and no cumulonimbus
Probability 30% :
Temporary
from 17 at 03 UTC to 17 at 09 UTC
Visibility: 1500 m
Broken clouds at a height of 1100 ft
mist

TAF: LEAB 170200Z 1703/1712 35006KT CAVOK PROB30 TEMPO 1703/1709 1500 BR BKN011

Weather observations and forecasts of more than 4000 airports (METAR and TAF reports).

The available stations are represented by yellow and red dots on the map.

Hover mouse over dot to see the name of the station.

Then click to see weather observations and forecasts.

To change the map : click on the green buttons with a black cross to zoom in, on the green button with a dash to zoom out, or on the green arrows for adjacent maps.


METAR-TAF: